Time;durP1;ratioP1;P1;durP2;ratioP2;P2;SDS_P1;SDS_P2;PMS_P1;PMS_P2;Temp;Humidity;BMP_temperature;BMP_pressure;BME280_temperature;BME280_humidity;BME280_pressure;Samples;Min_cycle;Max_cycle;Signal;HPM_P1;HPM_P2
2021/07/21 00:00:31;;;;;;;5.50;3.23;;;;;;;19.27;58.33;100112.25;126649;1088;114325;-81
2021/07/21 00:03:22;;;;;;;5.93;3.80;;;;;;;19.24;58.60;100113.32;126774;1090;102897;-81
2021/07/21 00:06:10;;;;;;;6.00;3.80;;;;;;;19.21;58.45;100112.66;126619;1090;114387;-81
2021/07/21 00:08:58;;;;;;;5.00;3.80;;;;;;;19.19;58.70;100115.42;126833;1090;103001;-81
2021/07/21 00:14:52;;;;;;;6.83;3.80;;;;;;;19.10;58.71;100113.43;126772;1089;101827;-81
2021/07/21 00:17:42;;;;;;;7.77;3.50;;;;;;;19.09;58.98;100110.89;126710;1089;114282;-81
2021/07/21 00:20:31;;;;;;;5.80;3.60;;;;;;;19.03;59.12;100109.53;126818;1089;103111;-81
2021/07/21 00:23:20;;;;;;;8.00;3.60;;;;;;;19.02;59.30;100118.39;126751;1088;102879;-81
2021/07/21 00:26:08;;;;;;;5.77;3.77;;;;;;;18.99;59.12;100113.31;126624;1090;113968;-81
2021/07/21 00:28:56;;;;;;;7.13;4.13;;;;;;;18.99;59.62;100116.80;126783;1090;102890;-82
2021/07/21 00:31:43;;;;;;;6.87;4.40;;;;;;;19.06;59.44;100119.05;126667;1089;114148;-81
2021/07/21 00:34:32;;;;;;;6.40;3.67;;;;;;;19.09;59.63;100117.03;126743;1089;102868;-81
2021/07/21 00:37:20;;;;;;;6.97;3.53;;;;;;;19.06;59.60;100116.41;126659;1090;114845;-81
2021/07/21 00:40:12;;;;;;;6.00;3.87;;;;;;;19.03;59.62;100114.82;126746;1090;102884;-81
2021/07/21 00:43:00;;;;;;;5.87;3.43;;;;;;;19.04;59.93;100111.22;126674;1090;113277;-80
2021/07/21 00:45:48;;;;;;;5.53;3.50;;;;;;;19.02;59.55;100118.39;126817;1089;102863;-80
2021/07/21 00:48:38;;;;;;;6.60;3.77;;;;;;;19.02;59.81;100115.74;126675;1090;114165;-81
2021/07/21 00:51:26;;;;;;;4.53;3.40;;;;;;;19.00;59.71;100115.00;126744;1090;102871;-80
2021/07/21 00:54:14;;;;;;;6.57;3.87;;;;;;;18.98;59.69;100122.20;126652;1090;114510;-81
2021/07/21 00:57:04;;;;;;;7.57;3.87;;;;;;;18.94;59.64;100120.72;126755;1089;102865;-81
2021/07/21 00:59:56;;;;;;;5.20;3.77;;;;;;;18.89;59.95;100118.41;126627;1090;114437;-81
2021/07/21 01:02:47;;;;;;;4.90;3.90;;;;;;;18.82;59.68;100124.20;126767;1089;103013;-81
2021/07/21 01:05:43;;;;;;;8.37;3.80;;;;;;;18.75;59.63;100125.58;126833;1088;102895;-81
2021/07/21 01:08:32;;;;;;;7.77;3.73;;;;;;;18.70;59.86;100134.66;126770;1090;102856;-81
2021/07/21 01:12:16;;;;;;;7.53;3.40;;;;;;;18.66;60.20;100127.88;126940;1090;102945;-81
2021/07/21 01:15:12;;;;;;;5.43;4.10;;;;;;;18.64;60.34;100135.05;126817;1090;101401;-81
2021/07/21 01:18:08;;;;;;;6.33;3.80;;;;;;;18.58;60.24;100134.60;126903;1088;102852;-81
2021/07/21 01:21:17;;;;;;;5.30;3.97;;;;;;;18.50;60.58;100127.20;126688;1089;114231;-81
2021/07/21 01:24:19;;;;;;;6.07;4.23;;;;;;;18.43;60.53;100125.91;126705;1090;103310;-81
2021/07/21 01:27:30;;;;;;;5.33;4.10;;;;;;;18.36;60.36;100130.75;126873;1090;114125;-81
2021/07/21 01:30:27;;;;;;;7.23;4.23;;;;;;;18.28;60.83;100126.91;126917;1090;102979;-81
2021/07/21 01:33:17;;;;;;;6.45;4.45;;;;;;;18.23;61.17;100143.06;126587;1090;114017;-81
2021/07/21 01:36:12;;;;;;;6.43;4.43;;;;;;;18.21;61.61;100138.83;126853;1090;103029;-81
2021/07/21 01:39:06;;;;;;;;;;;;;;;18.16;61.58;100138.30;126637;1088;114455;-81
2021/07/21 01:42:01;;;;;;;7.40;4.47;;;;;;;18.08;61.93;100131.70;126759;1090;102821;-81
2021/07/21 01:44:53;;;;;;;7.40;4.20;;;;;;;18.01;62.09;100142.77;126621;1089;114091;-81
2021/07/21 01:47:44;;;;;;;5.37;3.63;;;;;;;17.96;62.22;100137.80;126762;1090;103010;-81
2021/07/21 01:50:34;;;;;;;4.50;3.80;;;;;;;17.95;62.31;100136.07;126538;1089;114421;-81
2021/07/21 01:53:22;;;;;;;11.03;4.90;;;;;;;17.93;62.85;100140.60;126789;1090;102889;-81
2021/07/21 01:56:12;;;;;;;6.27;4.63;;;;;;;17.92;62.79;100138.91;126660;1090;114333;-80
2021/07/21 01:59:01;;;;;;;6.33;4.27;;;;;;;17.89;62.92;100136.48;126802;1090;103543;-80
2021/07/21 02:02:07;;;;;;;6.50;4.43;;;;;;;17.85;63.14;100144.70;126563;1090;114283;-80
2021/07/21 02:05:06;;;;;;;8.13;4.63;;;;;;;17.83;63.31;100142.16;126817;1089;103021;-81
2021/07/21 02:07:56;;;;;;;8.93;4.80;;;;;;;17.80;63.48;100145.84;126727;1090;113171;-81
2021/07/21 02:10:46;;;;;;;7.20;5.43;;;;;;;17.76;63.53;100146.11;126713;1090;100647;-81
2021/07/21 02:13:38;;;;;;;6.37;4.77;;;;;;;17.73;63.71;100148.95;126656;1089;114313;-81
2021/07/21 02:16:45;;;;;;;9.40;6.10;;;;;;;17.70;63.51;100147.35;126704;1090;103000;-80
2021/07/21 02:19:42;;;;;;;9.95;6.70;;;;;;;17.72;63.67;100144.61;126643;1088;114313;-80
2021/07/21 02:22:54;;;;;;;8.40;6.77;;;;;;;17.72;63.74;100144.61;126778;1088;102903;-80
2021/07/21 02:26:02;;;;;;;8.15;6.35;;;;;;;17.69;63.82;100150.09;126613;1089;114346;-80
2021/07/21 02:28:51;;;;;;;9.00;6.23;;;;;;;17.65;63.85;100164.39;126831;1089;102900;-80
2021/07/21 02:32:09;;;;;;;8.47;5.57;;;;;;;17.64;64.06;100162.70;126823;1089;114297;-80
2021/07/21 02:34:59;;;;;;;8.73;5.63;;;;;;;17.59;64.08;100170.03;126805;1090;102847;-80
2021/07/21 02:37:50;;;;;;;7.93;5.43;;;;;;;17.58;64.21;100173.61;126681;1088;113192;-81
2021/07/21 02:40:38;;;;;;;9.67;5.77;;;;;;;17.58;64.30;100173.61;126765;1089;102848;-80
2021/07/21 02:43:44;;;;;;;7.67;6.10;;;;;;;17.59;64.30;100173.51;126714;1090;114904;-80
2021/07/21 02:46:33;;;;;;;8.13;5.50;;;;;;;17.62;64.55;100169.86;126654;1089;102965;-80
2021/07/21 02:49:22;;;;;;;7.50;5.20;;;;;;;17.63;64.39;100180.31;126560;1089;114498;-80
2021/07/21 02:52:35;;;;;;;7.80;5.30;;;;;;;17.65;64.28;100190.77;126771;1089;103013;-80
2021/07/21 02:55:42;;;;;;;8.37;5.60;;;;;;;17.65;64.36;100188.13;126684;1090;114531;-80
2021/07/21 02:58:52;;;;;;;8.33;5.73;;;;;;;17.63;64.37;100195.29;126796;1089;102905;-80
2021/07/21 03:01:45;;;;;;;9.10;5.50;;;;;;;17.55;64.28;100189.63;126634;1089;114487;-81
2021/07/21 03:04:36;;;;;;;6.57;5.43;;;;;;;17.50;64.55;100188.13;126776;1090;102953;-82
2021/07/21 03:07:43;;;;;;;7.17;5.63;;;;;;;17.46;64.72;100186.63;126664;1089;113395;-80
2021/07/21 03:10:38;;;;;;;6.87;5.07;;;;;;;17.46;64.94;100186.63;126802;1089;102873;-80
2021/07/21 03:13:42;;;;;;;8.13;5.47;;;;;;;17.47;64.73;100192.75;126579;1090;113269;-80
2021/07/21 03:16:34;;;;;;;9.63;5.87;;;;;;;17.48;64.94;100190.02;126771;1088;102955;-80
2021/07/21 03:19:25;;;;;;;8.00;5.73;;;;;;;17.51;65.07;100189.81;126699;1090;113471;-80
2021/07/21 03:22:19;;;;;;;7.83;5.70;;;;;;;17.56;65.16;100193.95;126760;1090;102857;-80
2021/07/21 03:25:14;;;;;;;8.58;4.75;;;;;;;17.64;65.20;100199.62;126626;1090;114299;-80
2021/07/21 03:28:10;;;;;;;6.87;5.27;;;;;;;17.74;64.96;100203.39;126848;1090;102369;-80
2021/07/21 03:31:14;;;;;;;7.90;5.30;;;;;;;17.76;64.79;100204.14;126617;1090;114487;-79
2021/07/21 03:34:10;;;;;;;9.20;5.77;;;;;;;17.75;64.73;100215.64;126776;1090;102660;-80
2021/07/21 03:37:07;;;;;;;8.37;5.70;;;;;;;17.76;64.68;100219.97;126643;1088;114290;-79
2021/07/21 03:40:16;;;;;;;8.00;5.67;;;;;;;17.79;64.66;100217.17;126813;1090;102855;-79
2021/07/21 03:43:44;;;;;;;7.40;5.60;;;;;;;17.86;64.87;100221.11;126139;1093;114325;-80
2021/07/21 03:46:39;;;;;;;7.30;5.40;;;;;;;17.93;64.52;100222.41;126841;1089;102901;-81
2021/07/21 03:49:27;;;;;;;8.20;5.77;;;;;;;17.98;64.49;100222.98;126696;1090;113199;-79
2021/07/21 03:52:29;;;;;;;6.53;5.63;;;;;;;18.07;64.51;100225.02;126703;1090;102856;-79
2021/07/21 03:55:39;;;;;;;14.17;9.30;;;;;;;18.18;64.27;100226.14;126715;1090;114295;-80
2021/07/21 03:58:33;;;;;;;8.43;6.00;;;;;;;18.21;64.03;100232.07;126779;1090;102875;-80
2021/07/21 04:01:28;;;;;;;7.53;5.83;;;;;;;18.26;63.99;100218.57;126666;1090;114490;-80
2021/07/21 04:04:21;;;;;;;9.07;5.90;;;;;;;18.31;63.85;100224.39;126807;1089;102147;-80
2021/07/21 04:07:13;;;;;;;10.40;5.70;;;;;;;18.36;63.63;100236.38;126664;1089;114096;-80
2021/07/21 04:10:27;;;;;;;7.70;5.47;;;;;;;18.39;63.57;100240.61;126773;1090;102991;-80
2021/07/21 04:13:17;;;;;;;7.70;5.60;;;;;;;18.38;63.64;100242.40;126565;1090;114406;-80
2021/07/21 04:16:35;;;;;;;8.47;5.40;;;;;;;18.37;63.56;100248.63;126799;1088;103010;-81
2021/07/21 04:19:23;;;;;;;7.73;5.83;;;;;;;18.39;63.60;100257.30;126669;1090;114255;-80
2021/07/21 04:22:13;;;;;;;7.53;5.40;;;;;;;18.47;63.62;100251.50;126774;1090;103544;-80
2021/07/21 04:25:13;;;;;;;7.27;5.30;;;;;;;18.56;63.45;100261.48;126661;1089;114402;-80
2021/07/21 04:28:02;;;;;;;6.13;4.90;;;;;;;18.63;63.32;100260.16;126809;1090;101788;-80
2021/07/21 04:30:58;;;;;;;7.47;5.70;;;;;;;18.68;63.48;100263.38;126766;1090;102856;-80
2021/07/21 04:33:50;;;;;;;5.47;4.60;;;;;;;18.74;63.24;100263.91;126848;1090;103054;-80
2021/07/21 04:36:43;;;;;;;7.50;4.90;;;;;;;18.78;63.29;100260.95;126822;1089;103300;-80
2021/07/21 04:39:33;;;;;;;5.53;3.87;;;;;;;18.82;63.18;100264.23;126689;1088;114198;-80
2021/07/21 04:42:51;;;;;;;5.37;4.10;;;;;;;18.89;62.94;100260.27;126566;1090;103029;-80
2021/07/21 04:45:52;;;;;;;4.73;4.20;;;;;;;18.98;63.05;100275.49;126590;1090;114231;-80
2021/07/21 04:48:42;;;;;;;6.03;4.30;;;;;;;19.16;62.75;100274.27;126802;1090;103383;-81
2021/07/21 04:51:41;;;;;;;5.93;4.20;;;;;;;19.38;62.66;100267.52;126681;1088;114276;-80
2021/07/21 04:54:41;;;;;;;8.47;5.90;;;;;;;19.56;62.29;100279.52;126800;1089;102880;-80
2021/07/21 04:57:31;;;;;;;5.97;4.30;;;;;;;19.71;61.94;100274.97;126688;1090;114362;-80
2021/07/21 05:00:42;;;;;;;6.53;4.20;;;;;;;19.92;61.77;100279.59;126740;1090;102793;-80
2021/07/21 05:03:37;;;;;;;4.80;4.00;;;;;;;20.13;61.12;100277.26;126575;1089;113178;-82
2021/07/21 05:06:28;;;;;;;5.70;3.80;;;;;;;20.31;60.59;100275.09;126761;1090;102892;-80
2021/07/21 05:09:17;;;;;;;7.17;3.47;;;;;;;20.54;60.27;100280.55;126590;1088;114188;-82
2021/07/21 05:12:14;;;;;;;5.17;4.00;;;;;;;20.79;59.92;100280.43;126923;1090;102856;-82
2021/07/21 05:15:10;;;;;;;6.13;4.20;;;;;;;21.00;59.01;100281.48;126612;1089;113397;-81
2021/07/21 05:17:58;;;;;;;7.40;3.80;;;;;;;21.25;58.82;100285.83;126860;1090;102859;-80
2021/07/21 05:20:57;;;;;;;5.60;4.03;;;;;;;21.52;58.29;100290.82;126538;1090;114232;-80
2021/07/21 05:23:47;;;;;;;5.90;4.00;;;;;;;21.81;58.16;100282.42;126606;1090;102862;-80
2021/07/21 05:26:39;;;;;;;7.50;3.77;;;;;;;22.04;56.88;100284.10;126681;1090;114131;-80
2021/07/21 05:29:33;;;;;;;6.38;3.88;;;;;;;22.19;56.58;100284.73;126697;1090;102985;-80
2021/07/21 05:32:40;;;;;;;6.10;3.80;;;;;;;22.50;55.60;100288.44;126710;1090;114636;-80
2021/07/21 05:35:41;;;;;;;4.67;3.80;;;;;;;22.76;55.17;100284.47;126717;1089;103399;-80
2021/07/21 05:38:34;;;;;;;5.00;3.70;;;;;;;23.21;54.80;100287.83;126739;1090;113755;-80
2021/07/21 05:41:24;;;;;;;4.67;3.57;;;;;;;24.62;54.48;100284.44;126799;1089;102274;-80
2021/07/21 05:44:13;;;;;;;4.57;3.70;;;;;;;26.57;50.80;100280.33;126756;1090;112979;-80
2021/07/21 05:47:03;;;;;;;4.27;3.30;;;;;;;28.38;47.75;100279.66;126835;1089;102855;-81
2021/07/21 05:49:52;;;;;;;4.07;2.80;;;;;;;30.30;45.00;100279.88;126652;1090;114305;-81
2021/07/21 05:53:03;;;;;;;4.70;3.10;;;;;;;31.91;41.89;100277.94;126867;1089;102857;-81
2021/07/21 05:56:16;;;;;;;3.50;3.07;;;;;;;33.39;38.93;100268.36;126747;1090;114335;-81
2021/07/21 05:59:08;;;;;;;5.87;3.30;;;;;;;34.59;36.96;100278.79;126797;1089;102883;-81
2021/07/21 06:01:59;;;;;;;3.03;2.60;;;;;;;35.53;35.37;100273.25;126718;1090;114347;-82
2021/07/21 06:04:47;;;;;;;4.57;2.90;;;;;;;36.24;33.73;100275.15;126863;1090;102849;-82
2021/07/21 06:07:54;;;;;;;4.80;3.20;;;;;;;37.32;32.17;100280.56;126741;1089;113422;-82
2021/07/21 06:10:42;;;;;;;3.60;2.87;;;;;;;37.90;30.91;100282.95;126747;1089;102856;-81
2021/07/21 06:13:31;;;;;;;4.70;3.17;;;;;;;38.46;29.62;100290.02;126575;1088;113142;-82
2021/07/21 06:16:20;;;;;;;5.23;2.93;;;;;;;39.09;28.92;100286.80;126930;1090;102982;-82
2021/07/21 06:19:08;;;;;;;3.57;2.83;;;;;;;39.55;27.56;100286.86;126752;1090;102914;-81
2021/07/21 06:21:58;;;;;;;4.17;3.37;;;;;;;39.90;26.48;100283.26;126560;1089;113317;-81
2021/07/21 06:25:06;;;;;;;4.27;2.77;;;;;;;40.17;25.68;100289.02;126671;1090;102996;-81
2021/07/21 06:28:04;;;;;;;3.47;2.70;;;;;;;40.63;25.42;100292.67;126605;1090;112956;-81
2021/07/21 06:30:54;;;;;;;4.03;3.10;;;;;;;41.22;24.82;100301.38;126546;1090;102903;-81
2021/07/21 06:33:43;;;;;;;5.30;2.80;;;;;;;41.47;23.29;100285.35;126552;1088;114322;-81
2021/07/21 06:36:32;;;;;;;3.10;2.63;;;;;;;41.63;22.76;100280.92;126662;1090;102956;-79
2021/07/21 06:39:24;;;;;;;5.33;3.10;;;;;;;41.34;22.47;100292.03;126612;1090;114213;-79
2021/07/21 06:42:12;;;;;;;6.03;2.80;;;;;;;41.45;22.38;100292.99;126599;1090;103058;-79
2021/07/21 06:45:09;;;;;;;4.70;2.97;;;;;;;41.75;22.75;100300.85;126695;1088;114219;-79
2021/07/21 06:48:05;;;;;;;;;;;;;;;42.23;22.02;100299.30;126663;1088;103010;-80
2021/07/21 06:50:55;;;;;;;5.20;2.90;;;;;;;42.23;21.40;100302.05;126776;1090;102887;-80
2021/07/21 06:53:46;;;;;;;3.30;2.87;;;;;;;42.28;21.44;100298.53;126836;1090;103000;-80
2021/07/21 06:56:36;;;;;;;5.20;3.00;;;;;;;42.23;21.52;100302.05;126809;1090;114131;-79
2021/07/21 06:59:45;;;;;;;3.67;2.87;;;;;;;42.58;21.02;100301.64;126692;1089;102849;-79
2021/07/21 07:02:43;;;;;;;5.67;3.70;;;;;;;42.91;21.07;100308.81;126563;1090;114369;-78
2021/07/21 07:06:06;;;;;;;4.80;3.00;;;;;;;43.03;19.94;100303.98;126397;1092;100985;-81
2021/07/21 07:09:12;;;;;;;;;;;;;;;42.87;19.86;100307.66;126561;1089;113497;-81
2021/07/21 07:12:19;;;;;;;4.70;2.50;;;;;;;42.70;19.55;100307.77;126727;1090;101467;-81
2021/07/21 07:15:07;;;;;;;3.70;2.90;;;;;;;42.85;20.04;100304.34;126689;1089;113261;-81
2021/07/21 07:17:54;;;;;;;4.53;2.70;;;;;;;43.06;19.17;100308.95;126808;1089;102991;-80
2021/07/21 07:20:43;;;;;;;6.23;3.43;;;;;;;43.04;19.28;100308.39;126479;1090;115384;-77
2021/07/21 07:23:30;;;;;;;6.53;3.30;;;;;;;42.93;19.22;100308.58;126532;1089;102863;-77
2021/07/21 07:26:18;;;;;;;3.93;2.63;;;;;;;43.01;18.79;100314.41;126448;1088;114299;-77
2021/07/21 07:29:06;;;;;;;5.77;3.07;;;;;;;43.02;18.45;100307.00;126523;1090;103017;-77
2021/07/21 07:31:59;;;;;;;4.90;2.80;;;;;;;42.77;18.90;100308.41;126637;1089;114347;-77
2021/07/21 07:34:47;;;;;;;4.07;2.60;;;;;;;42.49;18.50;100305.92;126509;1090;102942;-77
2021/07/21 07:37:34;;;;;;;3.33;2.70;;;;;;;42.30;18.21;100307.32;126500;1089;102860;-77
2021/07/21 07:40:22;;;;;;;3.03;2.63;;;;;;;42.07;18.56;100309.25;126468;1090;113204;-78
2021/07/21 07:43:10;;;;;;;3.60;2.70;;;;;;;41.95;18.49;100312.08;126576;1088;103011;-78
2021/07/21 07:45:59;;;;;;;3.90;2.70;;;;;;;42.06;18.90;100314.96;126406;1090;114270;-78
2021/07/21 07:48:46;;;;;;;4.93;3.10;;;;;;;42.13;18.28;100307.39;126602;1089;102887;-78
2021/07/21 07:51:35;;;;;;;3.83;2.80;;;;;;;42.11;18.93;100298.61;126655;1089;114205;-78
2021/07/21 07:54:24;;;;;;;3.37;2.80;;;;;;;42.07;18.97;100306.52;126437;1089;102880;-78
2021/07/21 07:57:12;;;;;;;3.67;2.63;;;;;;;42.04;18.76;100303.43;126489;1090;114236;-78
2021/07/21 08:00:01;;;;;;;3.70;2.77;;;;;;;42.14;18.47;100303.56;126542;1090;102862;-79
2021/07/21 08:02:49;;;;;;;3.70;2.43;;;;;;;42.23;19.00;100307.53;126616;1090;114346;-78
2021/07/21 08:05:38;;;;;;;4.15;2.65;;;;;;;42.15;18.71;100305.22;126712;1089;102525;-78
2021/07/21 08:08:26;;;;;;;4.00;2.70;;;;;;;42.09;18.40;100300.77;126467;1090;114400;-77
2021/07/21 08:11:16;;;;;;;2.67;2.37;;;;;;;42.09;18.47;100300.77;126742;1088;102965;-77
2021/07/21 08:14:04;;;;;;;3.40;2.70;;;;;;;41.46;18.44;100302.86;126453;1089;114421;-77
2021/07/21 08:16:53;;;;;;;6.10;3.63;;;;;;;41.05;19.41;100306.84;126608;1089;103382;-77
2021/07/21 08:19:43;;;;;;;4.30;2.47;;;;;;;40.99;19.14;100296.90;126614;1088;103055;-77
2021/07/21 08:22:38;;;;;;;4.30;2.67;;;;;;;40.82;18.77;100299.62;126488;1089;114177;-78
2021/07/21 08:25:26;;;;;;;4.27;2.53;;;;;;;40.69;18.85;100302.63;126533;1090;102853;-78
2021/07/21 08:28:17;;;;;;;3.37;2.77;;;;;;;40.40;18.71;100304.56;126469;1090;114439;-77
2021/07/21 08:31:05;;;;;;;3.80;2.67;;;;;;;40.46;19.58;100303.57;126582;1090;103044;-78
2021/07/21 08:33:53;;;;;;;5.13;2.47;;;;;;;40.49;19.58;100302.25;126490;1090;114228;-77
2021/07/21 08:36:41;;;;;;;4.77;2.40;;;;;;;40.07;19.55;100311.52;126563;1089;102958;-77
2021/07/21 08:39:29;;;;;;;3.13;2.77;;;;;;;39.36;19.86;100304.40;126437;1090;114192;-77
2021/07/21 08:42:17;;;;;;;4.87;2.90;;;;;;;39.50;20.05;100297.64;126548;1090;102937;-77
2021/07/21 08:45:06;;;;;;;4.57;2.67;;;;;;;39.80;20.05;100310.33;126481;1090;114154;-76
2021/07/21 08:47:54;;;;;;;5.87;2.60;;;;;;;39.66;19.14;100303.45;126507;1090;102888;-77
2021/07/21 08:50:45;;;;;;;5.43;2.63;;;;;;;39.40;19.63;100304.75;126445;1089;114232;-77
2021/07/21 08:53:36;;;;;;;4.23;2.57;;;;;;;39.43;19.78;100302.38;126546;1089;103109;-77
2021/07/21 08:56:24;;;;;;;5.50;2.50;;;;;;;39.15;19.63;100308.53;126471;1089;114366;-77
2021/07/21 08:59:16;;;;;;;4.20;2.60;;;;;;;38.24;20.09;100306.84;126595;1090;102889;-77
2021/07/21 09:02:09;;;;;;;4.37;2.80;;;;;;;37.22;20.65;100308.25;126672;1090;104538;-78
2021/07/21 09:04:58;;;;;;;3.80;2.40;;;;;;;36.59;21.67;100314.48;126569;1089;102821;-78
2021/07/21 09:07:47;;;;;;;5.43;2.50;;;;;;;36.48;21.82;100312.48;126468;1089;102932;-78
2021/07/21 09:10:36;;;;;;;6.10;2.80;;;;;;;36.48;21.55;100306.22;126457;1090;114180;-76
2021/07/21 09:13:29;;;;;;;4.60;2.75;;;;;;;36.39;21.54;100308.33;126601;1090;102885;-80
2021/07/21 09:16:17;;;;;;;6.03;2.80;;;;;;;35.80;22.63;100308.48;126481;1089;113122;-79
2021/07/21 09:19:05;;;;;;;3.60;2.60;;;;;;;35.47;22.50;100308.53;126591;1090;102892;-79
2021/07/21 09:22:14;;;;;;;4.50;2.73;;;;;;;34.90;23.36;100323.50;126495;1090;113184;-80
2021/07/21 09:25:11;;;;;;;3.90;2.67;;;;;;;34.75;22.53;100316.34;126716;1090;103162;-80
2021/07/21 09:28:04;;;;;;;7.38;2.55;;;;;;;34.42;23.57;100315.41;126597;1088;113204;-79
2021/07/21 09:30:51;;;;;;;4.50;2.80;;;;;;;34.56;23.18;100311.70;126719;1090;102849;-80
2021/07/21 09:33:39;;;;;;;4.43;2.87;;;;;;;34.78;24.01;100315.92;126593;1090;113049;-80
2021/07/21 09:36:27;;;;;;;3.17;2.50;;;;;;;35.02;23.87;100317.27;126752;1089;103208;-80
2021/07/21 09:39:15;;;;;;;3.93;2.80;;;;;;;34.67;23.98;100318.42;126680;1089;113384;-80
2021/07/21 09:42:05;;;;;;;4.17;2.90;;;;;;;34.07;24.46;100317.30;126750;1090;102930;-80
2021/07/21 09:44:53;;;;;;;4.90;2.67;;;;;;;33.85;24.65;100313.85;126655;1089;114526;-80
2021/07/21 09:47:56;;;;;;;5.23;2.87;;;;;;;33.68;24.98;100310.59;126567;1090;103028;-79
2021/07/21 09:50:46;;;;;;;7.80;4.57;;;;;;;32.98;25.04;100327.64;126496;1090;114440;-77
2021/07/21 09:53:49;;;;;;;4.83;3.33;;;;;;;32.38;25.81;100321.56;126584;1090;102927;-79
2021/07/21 09:56:38;;;;;;;4.60;3.00;;;;;;;32.57;26.36;100321.98;126571;1090;114260;-80
2021/07/21 09:59:32;;;;;;;3.87;2.80;;;;;;;32.46;25.93;100315.20;126551;1089;103062;-78
2021/07/21 10:02:25;;;;;;;4.30;2.90;;;;;;;32.03;26.34;100316.91;126687;1089;103014;-78
2021/07/21 10:05:13;;;;;;;3.90;2.60;;;;;;;31.22;26.69;100327.44;126531;1090;113050;-78
2021/07/21 10:08:04;;;;;;;5.07;2.80;;;;;;;30.52;27.41;100332.92;126514;1090;102927;-78
2021/07/21 10:10:51;;;;;;;3.27;2.47;;;;;;;29.88;28.23;100333.97;126536;1090;114307;-80
2021/07/21 10:13:39;;;;;;;4.50;2.67;;;;;;;29.45;29.30;100334.22;126693;1089;102872;-79
2021/07/21 10:16:43;;;;;;;4.13;2.57;;;;;;;28.98;29.31;100335.84;126540;1089;113244;-79
2021/07/21 10:19:30;;;;;;;4.07;3.10;;;;;;;28.49;30.44;100341.05;126826;1090;103051;-79
2021/07/21 10:22:18;;;;;;;4.27;2.83;;;;;;;28.15;31.35;100341.03;126515;1090;114611;-80
2021/07/21 10:25:06;;;;;;;5.70;3.10;;;;;;;27.93;32.02;100342.44;126772;1090;100752;-79
2021/07/21 10:27:54;;;;;;;5.17;3.13;;;;;;;28.32;32.14;100341.98;126467;1090;113074;-79
2021/07/21 10:30:42;;;;;;;6.33;3.00;;;;;;;28.77;31.61;100339.80;126537;1090;103119;-79
2021/07/21 10:33:33;;;;;;;4.03;2.80;;;;;;;29.46;30.88;100327.83;126551;1090;114613;-79
2021/07/21 10:36:22;;;;;;;4.60;3.60;;;;;;;29.47;30.56;100340.26;126593;1090;102916;-79
2021/07/21 10:39:16;;;;;;;6.73;3.27;;;;;;;29.23;30.74;100334.00;126504;1089;114458;-79
2021/07/21 10:42:08;;;;;;;4.15;3.15;;;;;;;28.78;30.92;100346.01;126745;1090;102901;-79
2021/07/21 10:45:16;;;;;;;5.30;3.25;;;;;;;28.48;31.40;100347.41;126489;1090;114286;-79
2021/07/21 10:51:05;;;;;;;4.00;3.13;;;;;;;28.09;32.51;100347.05;126460;1090;114480;-79
2021/07/21 10:54:42;;;;;;;5.87;3.50;;;;;;;28.45;33.01;100345.06;126790;1089;102853;-78
2021/07/21 11:00:40;;;;;;;5.30;4.00;;;;;;;28.80;32.48;100350.20;126694;1090;103016;-79
2021/07/21 11:03:31;;;;;;;5.28;3.63;;;;;;;28.97;32.07;100334.16;126437;1088;113570;-75
2021/07/21 11:06:44;;;;;;;5.80;4.00;;;;;;;28.89;31.83;100334.97;126622;1090;103016;-78
2021/07/21 11:09:34;;;;;;;8.23;3.77;;;;;;;28.58;32.47;100340.92;126383;1090;114502;-78
2021/07/21 11:12:33;;;;;;;6.73;4.10;;;;;;;28.15;32.48;100338.36;126587;1090;103024;-78
2021/07/21 11:15:42;;;;;;;5.10;4.13;;;;;;;27.81;32.96;100346.38;126472;1090;115197;-78
2021/07/21 11:18:43;;;;;;;5.80;4.60;;;;;;;27.60;33.38;100347.55;126798;1088;102968;-78
2021/07/21 11:21:55;;;;;;;7.23;4.07;;;;;;;27.51;33.78;100343.14;126730;1090;114457;-78
2021/07/21 11:25:07;;;;;;;7.07;4.37;;;;;;;27.50;34.10;100341.46;126633;1090;103035;-78
2021/07/21 11:28:04;;;;;;;6.47;3.87;;;;;;;27.44;33.76;100344.73;126664;1089;114295;-78
2021/07/21 11:30:55;;;;;;;5.77;3.87;;;;;;;27.36;34.05;100344.69;126532;1088;102718;-78
2021/07/21 11:33:55;;;;;;;5.30;3.87;;;;;;;27.36;34.32;100342.01;126486;1089;114474;-78
2021/07/21 11:36:46;;;;;;;5.63;4.23;;;;;;;27.59;34.10;100337.83;126638;1089;103500;-78
2021/07/21 11:39:50;;;;;;;7.03;4.03;;;;;;;28.02;32.94;100337.98;126669;1090;114711;-78
2021/07/21 11:42:40;;;;;;;4.73;3.73;;;;;;;28.11;33.25;100337.00;126763;1089;101752;-78
2021/07/21 11:45:31;;;;;;;4.97;3.60;;;;;;;28.19;32.96;100334.38;126492;1088;114618;-78
2021/07/21 11:48:19;;;;;;;4.03;3.60;;;;;;;28.35;32.53;100334.45;126590;1090;102829;-78
2021/07/21 11:51:10;;;;;;;5.03;3.30;;;;;;;28.70;32.13;100328.02;126698;1088;114326;-78
2021/07/21 11:53:58;;;;;;;5.27;3.23;;;;;;;28.90;31.47;100325.91;126580;1089;102976;-78
2021/07/21 11:56:47;;;;;;;5.67;2.83;;;;;;;28.82;31.47;100336.61;126611;1090;102970;-78
2021/07/21 11:59:37;;;;;;;3.63;2.97;;;;;;;28.58;31.23;100334.72;126462;1090;114113;-78
2021/07/21 12:02:26;;;;;;;4.67;2.80;;;;;;;28.19;31.81;100337.06;126592;1090;102868;-77
2021/07/21 12:05:16;;;;;;;5.03;3.40;;;;;;;28.02;32.12;100343.34;126549;1089;114103;-79
2021/07/21 12:08:06;;;;;;;5.60;3.07;;;;;;;27.63;32.32;100338.38;126645;1089;102927;-78
2021/07/21 12:10:55;;;;;;;3.60;2.90;;;;;;;27.34;32.25;100335.97;126466;1090;114443;-78
2021/07/21 12:13:44;;;;;;;3.90;3.00;;;;;;;27.09;32.80;100345.61;126619;1090;103697;-78
2021/07/21 12:16:39;;;;;;;3.43;2.80;;;;;;;26.85;33.18;100348.02;126553;1088;114230;-78
2021/07/21 12:19:27;;;;;;;5.60;3.07;;;;;;;26.69;33.57;100356.71;126619;1089;102954;-79
2021/07/21 12:22:15;;;;;;;5.90;3.83;;;;;;;26.62;33.81;100337.75;126714;1090;114174;-79
2021/07/21 12:25:22;;;;;;;6.17;3.10;;;;;;;26.63;33.89;100351.97;126602;1089;102868;-79
2021/07/21 12:28:11;;;;;;;4.28;3.30;;;;;;;26.58;34.40;100359.61;126496;1090;114277;-79
2021/07/21 12:30:59;;;;;;;4.90;2.87;;;;;;;26.66;34.24;100355.19;126621;1088;102883;-79
2021/07/21 12:33:47;;;;;;;5.07;3.17;;;;;;;26.72;34.30;100354.57;126514;1090;114324;-79
2021/07/21 12:36:35;;;;;;;9.67;2.90;;;;;;;26.75;34.04;100350.75;126841;1090;101714;-79
2021/07/21 12:39:28;;;;;;;4.57;3.10;;;;;;;26.75;33.70;100364.13;126565;1088;114253;-79
2021/07/21 12:42:19;;;;;;;4.10;3.13;;;;;;;26.82;34.07;100351.84;126595;1090;103186;-79
2021/07/21 12:45:13;;;;;;;3.27;2.43;;;;;;;26.77;33.48;100351.47;126635;1089;102930;-79
2021/07/21 12:48:02;;;;;;;5.23;2.50;;;;;;;26.80;33.52;100345.80;126663;1090;102839;-79
2021/07/21 12:50:51;;;;;;;3.60;2.53;;;;;;;26.82;33.87;100359.03;126617;1090;102862;-79
2021/07/21 12:53:42;;;;;;;4.70;2.70;;;;;;;26.84;34.14;100349.02;126532;1090;114586;-79
2021/07/21 12:56:31;;;;;;;4.43;2.77;;;;;;;26.90;34.28;100348.40;126598;1090;103004;-79
2021/07/21 12:59:19;;;;;;;4.63;2.90;;;;;;;26.98;34.20;100352.02;126504;1089;113339;-79
2021/07/21 13:02:11;;;;;;;6.17;3.43;;;;;;;27.13;34.57;100347.01;126703;1089;103380;-79
2021/07/21 13:05:01;;;;;;;4.27;2.97;;;;;;;27.11;34.02;100340.97;126549;1090;114170;-79
2021/07/21 13:07:57;;;;;;;3.87;3.20;;;;;;;26.96;34.04;100342.45;126659;1090;103151;-79
2021/07/21 13:10:46;;;;;;;4.50;3.00;;;;;;;26.81;34.07;100350.16;126389;1090;114204;-79
2021/07/21 13:13:35;;;;;;;4.53;3.10;;;;;;;26.70;34.28;100361.07;126644;1090;102686;-79
2021/07/21 13:16:26;;;;;;;4.40;3.20;;;;;;;26.57;34.33;100356.09;126511;1088;113887;-79
2021/07/21 13:19:15;;;;;;;5.10;3.27;;;;;;;26.44;34.34;100361.78;126673;1090;102849;-79